createdAt,value
2017-06-26T20:01:24.775Z,1007.8
2017-06-26T20:02:26.205Z,1007.8
2017-06-26T20:03:27.637Z,1007.9
2017-06-26T20:04:29.086Z,1007.8
2017-06-26T20:05:30.516Z,1007.9
2017-06-26T20:06:31.945Z,1007.9
2017-06-26T20:07:33.399Z,1007.8
2017-06-26T20:08:34.832Z,1007.9
2017-06-26T20:09:36.258Z,1007.9
2017-06-26T20:10:37.698Z,1007.9
2017-06-26T20:11:39.148Z,1007.9
2017-06-26T20:12:40.638Z,1007.9
2017-06-26T20:13:42.067Z,1007.9
2017-06-26T20:14:43.501Z,1007.9
2017-06-26T20:15:44.930Z,1007.9
2017-06-26T20:16:46.366Z,1007.9
2017-06-26T20:17:47.910Z,1007.9
2017-06-26T20:18:49.340Z,1007.9
2017-06-26T20:19:50.774Z,1007.9
2017-06-26T20:20:52.215Z,1007.9
2017-06-26T20:21:53.650Z,1007.9
2017-06-26T20:22:55.079Z,1007.9
2017-06-26T20:23:56.509Z,1007.9
2017-06-26T20:24:57.940Z,1008.0
2017-06-26T20:25:59.374Z,1008.0
2017-06-26T20:27:00.801Z,1008.0
2017-06-26T20:28:02.238Z,1008.0
2017-06-26T20:29:03.674Z,1008.0
2017-06-26T20:30:05.126Z,1008.1
2017-06-26T20:31:06.557Z,1008.1
2017-06-26T20:32:07.986Z,1008.1
2017-06-26T20:33:09.421Z,1008.1
2017-06-26T20:34:10.847Z,1008.1
2017-06-26T20:35:12.278Z,1008.1
2017-06-26T20:36:13.709Z,1008.2
2017-06-26T20:37:15.142Z,1008.1
2017-06-26T20:38:16.574Z,1008.1
2017-06-26T20:39:18.001Z,1008.1
2017-06-26T20:40:19.434Z,1008.2
2017-06-26T20:41:20.866Z,1008.1
2017-06-26T20:42:22.322Z,1008.1
2017-06-26T20:43:23.753Z,1008.2
2017-06-26T20:44:25.185Z,1008.1
2017-06-26T20:45:26.633Z,1008.1
2017-06-26T20:46:28.049Z,1008.1
2017-06-26T20:47:29.481Z,1008.1
2017-06-26T20:48:30.914Z,1008.1
2017-06-26T20:49:32.364Z,1008.1
2017-06-26T20:50:33.798Z,1008.1
2017-06-26T20:51:35.231Z,1008.1
2017-06-26T20:52:36.662Z,1008.1
2017-06-26T20:53:38.095Z,1008.1
2017-06-26T20:54:39.527Z,1008.1
2017-06-26T20:55:40.959Z,1008.1
2017-06-26T20:56:42.390Z,1008.2
2017-06-26T20:57:43.825Z,1008.2
2017-06-26T20:58:45.256Z,1008.1
2017-06-26T20:59:46.689Z,1008.2
2017-06-26T21:00:48.124Z,1008.2
2017-06-26T21:01:49.551Z,1008.2
2017-06-26T21:02:50.983Z,1008.1
2017-06-26T21:03:52.414Z,1008.2
2017-06-26T21:04:53.845Z,1008.2
2017-06-26T21:05:55.276Z,1008.2
2017-06-26T21:06:56.706Z,1008.1
2017-06-26T21:07:58.138Z,1008.2
2017-06-26T21:08:59.573Z,1008.1
2017-06-26T21:10:01.000Z,1008.1
2017-06-26T21:11:02.432Z,1008.1
2017-06-26T21:12:03.865Z,1008.2
2017-06-26T21:13:05.302Z,1008.2
2017-06-26T21:14:06.728Z,1008.2
2017-06-26T21:15:08.185Z,1008.1
2017-06-26T21:16:09.600Z,1008.1
2017-06-26T21:17:11.032Z,1008.2
2017-06-26T21:18:12.462Z,1008.2
2017-06-26T21:19:13.894Z,1008.1
2017-06-26T21:20:15.323Z,1008.2
2017-06-26T21:21:16.757Z,1008.1
2017-06-26T21:22:18.187Z,1008.1
2017-06-26T21:23:19.619Z,1008.2
2017-06-26T21:24:21.051Z,1008.1
2017-06-26T21:25:22.485Z,1008.1
2017-06-26T21:26:23.916Z,1008.1
2017-06-26T21:27:25.347Z,1008.1
2017-06-26T21:28:26.780Z,1008.1
2017-06-26T21:29:28.211Z,1008.1
2017-06-26T21:30:29.644Z,1008.1
2017-06-26T21:31:31.075Z,1008.1
2017-06-26T21:32:32.506Z,1008.1
2017-06-26T21:33:33.938Z,1008.1
2017-06-26T21:34:35.372Z,1008.1
2017-06-26T21:35:36.802Z,1008.1
2017-06-26T21:36:38.232Z,1008.1
2017-06-26T21:37:39.677Z,1008.0
2017-06-26T21:38:41.111Z,1008.0
2017-06-26T21:39:42.542Z,1008.0
2017-06-26T21:40:43.974Z,1008.0
2017-06-26T21:41:45.404Z,1008.0
2017-06-26T21:42:46.834Z,1008.0
2017-06-26T21:43:48.264Z,1008.0
2017-06-26T21:44:49.698Z,1008.0
2017-06-26T21:45:51.129Z,1008.0
2017-06-26T21:46:52.563Z,1008.0
2017-06-26T21:47:53.996Z,1008.0
2017-06-26T21:48:55.425Z,1008.0
2017-06-26T21:49:56.856Z,1008.0
2017-06-26T21:50:58.291Z,1008.0
2017-06-26T21:51:59.722Z,1008.0
2017-06-26T21:53:01.153Z,1008.0
2017-06-26T21:54:02.587Z,1008.0
2017-06-26T21:55:04.017Z,1008.0
2017-06-26T21:56:05.453Z,1008.0
2017-06-26T21:57:06.884Z,1008.0
2017-06-26T21:58:08.316Z,1008.0
2017-06-26T21:59:09.749Z,1008.0
2017-06-26T22:00:11.180Z,1008.0
2017-06-26T22:01:12.610Z,1008.0
2017-06-26T22:02:14.045Z,1008.0
2017-06-26T22:03:15.476Z,1008.0
2017-06-26T22:04:16.908Z,1008.0
2017-06-26T22:05:18.344Z,1008.0
2017-06-26T22:06:19.772Z,1008.0
2017-06-26T22:07:21.211Z,1008.0
2017-06-26T22:08:22.642Z,1008.1
2017-06-26T22:09:24.079Z,1008.0
2017-06-26T22:10:25.512Z,1008.0
2017-06-26T22:11:26.942Z,1008.1
2017-06-26T22:12:28.378Z,1008.1
2017-06-26T22:13:29.810Z,1008.1
2017-06-26T22:14:31.242Z,1008.1
2017-06-26T22:15:32.672Z,1008.1
2017-06-26T22:16:34.103Z,1008.1
2017-06-26T22:17:35.536Z,1008.1
2017-06-26T22:18:36.969Z,1008.1
2017-06-26T22:19:38.404Z,1008.1
2017-06-26T22:20:39.837Z,1008.1
2017-06-26T22:21:41.268Z,1008.1
2017-06-26T22:22:42.698Z,1008.1
2017-06-26T22:23:44.131Z,1008.1
2017-06-26T22:24:45.568Z,1008.1
2017-06-26T22:25:46.999Z,1008.1
2017-06-26T22:26:48.432Z,1008.1
2017-06-26T22:27:49.860Z,1008.1
2017-06-26T22:28:51.293Z,1008.1
2017-06-26T22:29:52.729Z,1008.1
2017-06-26T22:30:54.159Z,1008.1
2017-06-26T22:31:55.595Z,1008.1
2017-06-26T22:32:57.025Z,1008.1
2017-06-26T22:33:58.456Z,1008.1
2017-06-26T22:34:59.899Z,1008.1
2017-06-26T22:36:01.319Z,1008.1
2017-06-26T22:37:02.751Z,1008.1
2017-06-26T22:38:04.183Z,1008.1
2017-06-26T22:39:05.615Z,1008.1
2017-06-26T22:40:07.056Z,1008.1
2017-06-26T22:41:08.487Z,1008.0
2017-06-26T22:42:09.919Z,1008.1
2017-06-26T22:43:11.350Z,1008.1
2017-06-26T22:44:12.784Z,1008.1
2017-06-26T22:45:14.214Z,1008.1
2017-06-26T22:46:15.645Z,1008.1
2017-06-26T22:47:17.077Z,1008.1
2017-06-26T22:48:18.509Z,1008.1
2017-06-26T22:49:19.948Z,1008.1
2017-06-26T22:50:21.380Z,1008.1
2017-06-26T22:51:22.813Z,1008.1
2017-06-26T22:52:24.258Z,1008.1
2017-06-26T22:53:25.677Z,1008.0
2017-06-26T22:54:27.111Z,1008.0
2017-06-26T22:55:28.539Z,1008.0
2017-06-26T22:56:29.975Z,1007.9
2017-06-26T22:57:31.395Z,1008.0
2017-06-26T22:58:32.837Z,1008.0
2017-06-26T22:59:34.269Z,1007.9
2017-06-26T23:00:35.700Z,1007.9
2017-06-26T23:01:37.133Z,1007.9
2017-06-26T23:02:38.565Z,1007.9
2017-06-26T23:03:39.996Z,1007.9
2017-06-26T23:04:41.429Z,1007.9
2017-06-26T23:05:42.863Z,1007.9
2017-06-26T23:06:44.298Z,1007.8
2017-06-26T23:07:45.730Z,1007.9
2017-06-26T23:08:47.168Z,1007.8
2017-06-26T23:09:48.602Z,1007.9
2017-06-26T23:10:50.032Z,1007.9
2017-06-26T23:11:51.463Z,1007.9
2017-06-26T23:12:52.894Z,1007.8
2017-06-26T23:13:54.331Z,1007.8
2017-06-26T23:14:55.758Z,1007.8
2017-06-26T23:15:57.204Z,1007.8
2017-06-26T23:16:58.625Z,1007.8
2017-06-26T23:18:00.055Z,1007.8
2017-06-26T23:19:01.488Z,1007.8
2017-06-26T23:20:02.920Z,1007.8
2017-06-26T23:21:04.355Z,1007.8
2017-06-26T23:22:05.785Z,1007.8
2017-06-26T23:23:07.215Z,1007.8
2017-06-26T23:24:08.644Z,1007.8
2017-06-26T23:25:10.080Z,1007.8
2017-06-26T23:26:11.511Z,1007.8
2017-06-26T23:27:12.946Z,1007.8
2017-06-26T23:28:14.379Z,1007.8
2017-06-26T23:29:15.809Z,1007.8
2017-06-26T23:30:17.243Z,1007.7
2017-06-26T23:31:18.674Z,1007.7
2017-06-26T23:32:20.107Z,1007.7
2017-06-26T23:33:21.541Z,1007.7
2017-06-26T23:34:22.972Z,1007.7
2017-06-26T23:35:24.403Z,1007.7
2017-06-26T23:36:25.845Z,1007.7
2017-06-26T23:37:27.287Z,1007.7
2017-06-26T23:38:28.710Z,1007.7
2017-06-26T23:39:30.143Z,1007.7
2017-06-26T23:40:31.577Z,1007.7
2017-06-26T23:41:33.005Z,1007.7
2017-06-26T23:42:34.439Z,1007.6
2017-06-26T23:43:35.869Z,1007.6
2017-06-26T23:44:37.301Z,1007.6
2017-06-26T23:45:38.732Z,1007.6
2017-06-26T23:46:40.165Z,1007.6
2017-06-26T23:47:41.598Z,1007.6
2017-06-26T23:48:43.028Z,1007.6
2017-06-26T23:49:44.464Z,1007.6
2017-06-26T23:50:45.882Z,1007.6
2017-06-26T23:51:47.328Z,1007.6
2017-06-26T23:52:48.760Z,1007.7
2017-06-26T23:53:50.190Z,1007.6
2017-06-26T23:54:51.622Z,1007.6
2017-06-26T23:55:53.053Z,1007.6
2017-06-26T23:56:54.485Z,1007.6
2017-06-26T23:57:55.918Z,1007.5
2017-06-26T23:58:57.351Z,1007.5
2017-06-26T23:59:58.784Z,1007.5
